sensor_id;sensor_type;location;lat;lon;timestamp;pressure;altitude;pressure_sealevel;temperature;humidity
2036;BME280;23642;42.658;23.350;2022-11-30T00:01:57;50873.75;;;-146.31;100.00
2036;BME280;23642;42.658;23.350;2022-11-30T00:04:24;50818.06;;;-146.31;100.00
2036;BME280;23642;42.658;23.350;2022-11-30T00:06:51;50824.25;;;-146.31;100.00
2036;BME280;23642;42.658;23.350;2022-11-30T00:09:22;50820.13;;;-146.31;100.00
2036;BME280;23642;42.658;23.350;2022-11-30T00:11:51;50783.00;;;-146.31;100.00
2036;BME280;23642;42.658;23.350;2022-11-30T00:14:18;50762.38;;;-146.31;100.00
2036;BME280;23642;42.658;23.350;2022-11-30T00:16:45;50712.88;;;-146.31;100.00
2036;BME280;23642;42.658;23.350;2022-11-30T00:19:12;50692.25;;;-146.31;100.00
2036;BME280;23642;42.658;23.350;2022-11-30T00:21:39;50700.50;;;-146.31;100.00
2036;BME280;23642;42.658;23.350;2022-11-30T00:24:07;50690.19;;;-146.31;100.00
2036;BME280;23642;42.658;23.350;2022-11-30T00:26:34;50638.63;;;-146.31;100.00
2036;BME280;23642;42.658;23.350;2022-11-30T00:29:03;50671.63;;;-146.31;100.00
2036;BME280;23642;42.658;23.350;2022-11-30T00:31:30;50653.06;;;-146.31;100.00
2036;BME280;23642;42.658;23.350;2022-11-30T00:33:57;50679.88;;;-146.31;100.00
2036;BME280;23642;42.658;23.350;2022-11-30T00:36:24;50609.75;;;-146.31;100.00
2036;BME280;23642;42.658;23.350;2022-11-30T00:38:51;50554.06;;;-146.31;100.00
2036;BME280;23642;42.658;23.350;2022-11-30T00:41:20;50595.31;;;-146.31;100.00
2036;BME280;23642;42.658;23.350;2022-11-30T00:43:50;50572.63;;;-146.31;100.00
2036;BME280;23642;42.658;23.350;2022-11-30T00:46:18;50547.88;;;-146.31;100.00
2036;BME280;23642;42.658;23.350;2022-11-30T00:48:46;50529.31;;;-146.31;100.00
2036;BME280;23642;42.658;23.350;2022-11-30T00:51:13;50523.13;;;-146.31;100.00
2036;BME280;23642;42.658;23.350;2022-11-30T00:53:40;50508.69;;;-146.31;100.00
2036;BME280;23642;42.658;23.350;2022-11-30T00:56:09;50494.25;;;-146.31;100.00
2036;BME280;23642;42.658;23.350;2022-11-30T00:58:36;50415.88;;;-146.31;100.00
2036;BME280;23642;42.658;23.350;2022-11-30T01:01:07;50438.56;;;-146.31;100.00
2036;BME280;23642;42.658;23.350;2022-11-30T01:03:38;50415.88;;;-146.31;100.00
2036;BME280;23642;42.658;23.350;2022-11-30T01:06:08;50397.31;;;-146.31;100.00
2036;BME280;23642;42.658;23.350;2022-11-30T01:08:39;50364.31;;;-146.31;100.00
2036;BME280;23642;42.658;23.350;2022-11-30T01:11:08;50329.25;;;-146.31;100.00
2036;BME280;23642;42.658;23.350;2022-11-30T01:13:41;50325.13;;;-146.31;100.00
2036;BME280;23642;42.658;23.350;2022-11-30T01:16:11;50314.81;;;-146.31;100.00
2036;BME280;23642;42.658;23.350;2022-11-30T01:18:42;50277.69;;;-146.31;100.00
2036;BME280;23642;42.658;23.350;2022-11-30T01:21:13;50275.63;;;-146.31;100.00
2036;BME280;23642;42.658;23.350;2022-11-30T01:23:41;50244.69;;;-146.31;100.00
2036;BME280;23642;42.658;23.350;2022-11-30T01:26:12;50222.00;;;-146.31;100.00
2036;BME280;23642;42.658;23.350;2022-11-30T01:28:42;50232.31;;;-146.31;100.00
2036;BME280;23642;42.658;23.350;2022-11-30T01:31:11;50205.50;;;-146.31;100.00
2036;BME280;23642;42.658;23.350;2022-11-30T01:33:47;50162.22;;;-146.31;100.00
2036;BME280;23642;42.658;23.350;2022-11-30T01:36:22;50083.84;;;-146.31;100.00
2036;BME280;23642;42.658;23.350;2022-11-30T01:38:52;50021.97;;;-146.31;100.00
2036;BME280;23642;42.658;23.350;2022-11-30T01:41:25;49995.16;;;-146.31;100.00
2036;BME280;23642;42.658;23.350;2022-11-30T01:43:56;49958.06;;;-146.31;100.00
2036;BME280;23642;42.658;23.350;2022-11-30T01:46:30;49929.19;;;-146.31;100.00
2036;BME280;23642;42.658;23.350;2022-11-30T01:49:15;49863.19;;;-146.31;100.00
2036;BME280;23642;42.658;23.350;2022-11-30T01:51:47;49797.22;;;-146.31;100.00
2036;BME280;23642;42.658;23.350;2022-11-30T01:54:23;49809.59;;;-146.31;100.00
2036;BME280;23642;42.658;23.350;2022-11-30T01:56:54;49774.53;;;-146.31;100.00
2036;BME280;23642;42.658;23.350;2022-11-30T01:59:26;49737.41;;;-146.31;100.00
2036;BME280;23642;42.658;23.350;2022-11-30T02:01:58;49743.59;;;-146.31;100.00
2036;BME280;23642;42.658;23.350;2022-11-30T02:04:31;49739.47;;;-146.31;100.00
2036;BME280;23642;42.658;23.350;2022-11-30T02:07:12;49698.25;;;-146.31;100.00
2036;BME280;23642;42.658;23.350;2022-11-30T02:09:51;49661.13;;;-146.31;100.00
2036;BME280;23642;42.658;23.350;2022-11-30T02:12:38;49644.63;;;-146.31;100.00
2036;BME280;23642;42.658;23.350;2022-11-30T02:15:11;49582.78;;;-146.31;100.00
2036;BME280;23642;42.658;23.350;2022-11-30T02:17:47;49549.78;;;-146.31;100.00
2036;BME280;23642;42.658;23.350;2022-11-30T02:20:41;49551.84;;;-146.31;100.00
2036;BME280;23642;42.658;23.350;2022-11-30T02:26:40;49473.50;;;-146.31;100.00
2036;BME280;23642;42.658;23.350;2022-11-30T02:29:19;49386.91;;;-146.31;100.00
2036;BME280;23642;42.658;23.350;2022-11-30T02:31:54;49434.31;;;-146.31;100.00
2036;BME280;23642;42.658;23.350;2022-11-30T02:34:33;49430.19;;;-146.31;100.00
2036;BME280;23642;42.658;23.350;2022-11-30T02:37:04;49395.16;;;-146.31;100.00
2036;BME280;23642;42.658;23.350;2022-11-30T02:39:33;49393.09;;;-146.31;100.00
2036;BME280;23642;42.658;23.350;2022-11-30T02:42:00;49395.16;;;-146.31;100.00
2036;BME280;23642;42.658;23.350;2022-11-30T02:44:29;49409.56;;;-146.31;100.00
2036;BME280;23642;42.658;23.350;2022-11-30T02:47:09;49372.47;;;-146.31;100.00
2036;BME280;23642;42.658;23.350;2022-11-30T02:49:47;49353.91;;;-146.31;100.00
2036;BME280;23642;42.658;23.350;2022-11-30T02:52:42;49360.09;;;-146.31;100.00
2036;BME280;23642;42.658;23.350;2022-11-30T02:55:14;49322.97;;;-146.31;100.00
2036;BME280;23642;42.658;23.350;2022-11-30T02:57:45;49314.75;;;-146.31;100.00
2036;BME280;23642;42.658;23.350;2022-11-30T03:00:15;49312.69;;;-146.31;100.00
2036;BME280;23642;42.658;23.350;2022-11-30T03:02:43;49337.41;;;-146.31;100.00
2036;BME280;23642;42.658;23.350;2022-11-30T03:05:10;49310.63;;;-146.31;100.00
2036;BME280;23642;42.658;23.350;2022-11-30T03:07:38;49273.50;;;-146.31;100.00
2036;BME280;23642;42.658;23.350;2022-11-30T03:10:19;49254.94;;;-146.31;100.00
2036;BME280;23642;42.658;23.350;2022-11-30T03:12:51;49244.63;;;-146.31;100.00
2036;BME280;23642;42.658;23.350;2022-11-30T03:15:20;49240.53;;;-146.31;100.00
2036;BME280;23642;42.658;23.350;2022-11-30T03:17:55;49230.22;;;-146.31;100.00
2036;BME280;23642;42.658;23.350;2022-11-30T03:20:39;49178.66;;;-146.31;100.00
2036;BME280;23642;42.658;23.350;2022-11-30T03:23:10;49207.53;;;-146.31;100.00
2036;BME280;23642;42.658;23.350;2022-11-30T03:25:40;49191.03;;;-146.31;100.00
2036;BME280;23642;42.658;23.350;2022-11-30T03:28:09;49162.19;;;-146.31;100.00
2036;BME280;23642;42.658;23.350;2022-11-30T03:30:39;49166.28;;;-146.31;100.00
2036;BME280;23642;42.658;23.350;2022-11-30T03:33:06;49143.63;;;-146.31;100.00
2036;BME280;23642;42.658;23.350;2022-11-30T03:35:35;49133.31;;;-146.31;100.00
2036;BME280;23642;42.658;23.350;2022-11-30T03:38:05;49137.44;;;-146.31;100.00
2036;BME280;23642;42.658;23.350;2022-11-30T03:40:37;49120.94;;;-146.31;100.00
2036;BME280;23642;42.658;23.350;2022-11-30T03:43:15;49087.97;;;-146.31;100.00
2036;BME280;23642;42.658;23.350;2022-11-30T03:45:47;49098.25;;;-146.31;100.00
2036;BME280;23642;42.658;23.350;2022-11-30T03:48:15;49096.19;;;-146.31;100.00
2036;BME280;23642;42.658;23.350;2022-11-30T03:50:52;49059.09;;;-146.31;100.00
2036;BME280;23642;42.658;23.350;2022-11-30T03:53:29;49067.34;;;-146.31;100.00
2036;BME280;23642;42.658;23.350;2022-11-30T03:55:59;49050.84;;;-146.31;100.00
2036;BME280;23642;42.658;23.350;2022-11-30T03:58:36;49028.16;;;-146.31;100.00
2036;BME280;23642;42.658;23.350;2022-11-30T04:01:06;49034.34;;;-146.31;100.00
2036;BME280;23642;42.658;23.350;2022-11-30T04:03:47;48993.13;;;-146.31;100.00
2036;BME280;23642;42.658;23.350;2022-11-30T04:06:20;48991.06;;;-146.31;100.00
2036;BME280;23642;42.658;23.350;2022-11-30T04:08:48;49003.44;;;-146.31;100.00
2036;BME280;23642;42.658;23.350;2022-11-30T04:11:17;48982.81;;;-146.31;100.00
2036;BME280;23642;42.658;23.350;2022-11-30T04:13:44;48960.16;;;-146.31;100.00
2036;BME280;23642;42.658;23.350;2022-11-30T04:16:13;48953.97;;;-146.31;100.00
2036;BME280;23642;42.658;23.350;2022-11-30T04:19:03;48986.94;;;-146.31;100.00
2036;BME280;23642;42.658;23.350;2022-11-30T04:21:41;48951.91;;;-146.31;100.00
2036;BME280;23642;42.658;23.350;2022-11-30T04:24:11;48945.72;;;-146.31;100.00
2036;BME280;23642;42.658;23.350;2022-11-30T04:26:41;48927.16;;;-146.31;100.00
2036;BME280;23642;42.658;23.350;2022-11-30T04:29:11;48894.19;;;-146.31;100.00
2036;BME280;23642;42.658;23.350;2022-11-30T04:31:42;48925.09;;;-146.31;100.00
2036;BME280;23642;42.658;23.350;2022-11-30T04:34:09;48929.22;;;-146.31;100.00
2036;BME280;23642;42.658;23.350;2022-11-30T04:36:37;48896.25;;;-146.31;100.00
2036;BME280;23642;42.658;23.350;2022-11-30T04:39:09;48890.06;;;-146.31;100.00
2036;BME280;23642;42.658;23.350;2022-11-30T04:41:43;48877.69;;;-146.31;100.00
2036;BME280;23642;42.658;23.350;2022-11-30T04:44:10;48908.59;;;-146.31;100.00
2036;BME280;23642;42.658;23.350;2022-11-30T04:46:44;48888.00;;;-146.31;100.00
2036;BME280;23642;42.658;23.350;2022-11-30T04:49:13;48912.72;;;-146.31;100.00
2036;BME280;23642;42.658;23.350;2022-11-30T04:51:50;48828.22;;;-146.31;100.00
2036;BME280;23642;42.658;23.350;2022-11-30T04:54:22;48842.63;;;-146.31;100.00
2036;BME280;23642;42.658;23.350;2022-11-30T04:56:52;48809.66;;;-146.31;100.00
2036;BME280;23642;42.658;23.350;2022-11-30T04:59:23;48811.72;;;-146.31;100.00
2036;BME280;23642;42.658;23.350;2022-11-30T05:02:11;48815.84;;;-146.31;100.00
2036;BME280;23642;42.658;23.350;2022-11-30T05:04:44;48795.22;;;-146.31;100.00
2036;BME280;23642;42.658;23.350;2022-11-30T05:07:14;48786.97;;;-146.31;100.00
2036;BME280;23642;42.658;23.350;2022-11-30T05:09:48;48789.03;;;-146.31;100.00
2036;BME280;23642;42.658;23.350;2022-11-30T05:12:17;48772.56;;;-146.31;100.00
2036;BME280;23642;42.658;23.350;2022-11-30T05:14:46;48747.81;;;-146.31;100.00
2036;BME280;23642;42.658;23.350;2022-11-30T05:17:17;48768.44;;;-146.31;100.00
2036;BME280;23642;42.658;23.350;2022-11-30T05:19:44;48784.91;;;-146.31;100.00
2036;BME280;23642;42.658;23.350;2022-11-30T05:22:11;48786.97;;;-146.31;100.00
2036;BME280;23642;42.658;23.350;2022-11-30T05:24:39;48776.69;;;-146.31;100.00
2036;BME280;23642;42.658;23.350;2022-11-30T05:27:11;48760.19;;;-146.31;100.00
2036;BME280;23642;42.658;23.350;2022-11-30T05:29:39;48780.78;;;-146.31;100.00
2036;BME280;23642;42.658;23.350;2022-11-30T05:32:06;48754.00;;;-146.31;100.00
2036;BME280;23642;42.658;23.350;2022-11-30T05:34:41;48749.88;;;-146.31;100.00
2036;BME280;23642;42.658;23.350;2022-11-30T05:37:08;48754.00;;;-146.31;100.00
2036;BME280;23642;42.658;23.350;2022-11-30T05:39:37;48772.56;;;-146.31;100.00
2036;BME280;23642;42.658;23.350;2022-11-30T05:42:05;48768.44;;;-146.31;100.00
2036;BME280;23642;42.658;23.350;2022-11-30T05:44:33;48745.75;;;-146.31;100.00
2036;BME280;23642;42.658;23.350;2022-11-30T05:47:00;48780.78;;;-146.31;100.00
2036;BME280;23642;42.658;23.350;2022-11-30T05:49:38;48741.63;;;-146.31;100.00
2036;BME280;23642;42.658;23.350;2022-11-30T05:52:14;48749.88;;;-146.31;100.00
2036;BME280;23642;42.658;23.350;2022-11-30T05:54:52;48786.97;;;-146.31;100.00
2036;BME280;23642;42.658;23.350;2022-11-30T05:57:23;48784.91;;;-146.31;100.00
2036;BME280;23642;42.658;23.350;2022-11-30T05:59:52;48760.19;;;-146.31;100.00
2036;BME280;23642;42.658;23.350;2022-11-30T06:02:29;48768.44;;;-146.31;100.00
2036;BME280;23642;42.658;23.350;2022-11-30T06:05:00;48799.34;;;-146.31;100.00
2036;BME280;23642;42.658;23.350;2022-11-30T06:07:31;48770.50;;;-146.31;100.00
2036;BME280;23642;42.658;23.350;2022-11-30T06:10:00;48809.66;;;-146.31;100.00
2036;BME280;23642;42.658;23.350;2022-11-30T06:12:42;48828.22;;;-146.31;100.00
2036;BME280;23642;42.658;23.350;2022-11-30T06:18:27;48836.47;;;-146.31;100.00
2036;BME280;23642;42.658;23.350;2022-11-30T06:21:16;48840.56;;;-146.31;100.00
2036;BME280;23642;42.658;23.350;2022-11-30T06:24:12;48861.19;;;-146.31;100.00
2036;BME280;23642;42.658;23.350;2022-11-30T06:26:57;48877.69;;;-146.31;100.00
2036;BME280;23642;42.658;23.350;2022-11-30T06:30:00;48877.69;;;-146.31;100.00
2036;BME280;23642;42.658;23.350;2022-11-30T06:32:58;48863.25;;;-146.31;100.00
2036;BME280;23642;42.658;23.350;2022-11-30T06:35:45;48848.81;;;-146.31;100.00
2036;BME280;23642;42.658;23.350;2022-11-30T06:38:40;48871.50;;;-146.31;100.00
2036;BME280;23642;42.658;23.350;2022-11-30T06:41:59;48885.94;;;-146.31;100.00
2036;BME280;23642;42.658;23.350;2022-11-30T06:44:35;48881.81;;;-146.31;100.00
2036;BME280;23642;42.658;23.350;2022-11-30T06:48:38;48873.56;;;-146.31;100.00
2036;BME280;23642;42.658;23.350;2022-11-30T06:51:34;48916.84;;;-146.31;100.00
2036;BME280;23642;42.658;23.350;2022-11-30T07:18:59;49199.28;;;-146.31;99.13
2036;BME280;23642;42.658;23.350;2022-11-30T07:21:36;49240.53;;;-146.31;99.05
2036;BME280;23642;42.658;23.350;2022-11-30T07:24:34;49294.13;;;-146.31;98.54
2036;BME280;23642;42.658;23.350;2022-11-30T07:27:57;49259.06;;;-146.31;99.08
2036;BME280;23642;42.658;23.350;2022-11-30T08:02:42;49512.66;;;-146.31;97.28
2036;BME280;23642;42.658;23.350;2022-11-30T08:09:01;49613.69;;;-146.31;96.21
2036;BME280;23642;42.658;23.350;2022-11-30T08:11:43;49611.63;;;-146.31;95.90
2036;BME280;23642;42.658;23.350;2022-11-30T08:14:42;49644.63;;;-146.31;95.65
2036;BME280;23642;42.658;23.350;2022-11-30T08:43:44;49865.25;;;-146.31;93.85
2036;BME280;23642;42.658;23.350;2022-11-30T08:46:31;49873.50;;;-146.31;94.51
2036;BME280;23642;42.658;23.350;2022-11-30T08:56:16;49960.13;;;-146.31;93.49
2036;BME280;23642;42.658;23.350;2022-11-30T09:16:02;49947.75;;;-146.31;94.31
2036;BME280;23642;42.658;23.350;2022-11-30T09:23:00;49933.31;;;-146.31;94.26
2036;BME280;23642;42.658;23.350;2022-11-30T09:26:18;49949.81;;;-146.31;94.48
2036;BME280;23642;42.658;23.350;2022-11-30T09:29:20;49937.44;;;-146.31;94.95
2036;BME280;23642;42.658;23.350;2022-11-30T09:38:49;49958.06;;;-146.31;94.78
2036;BME280;23642;42.658;23.350;2022-11-30T09:45:15;49964.25;;;-146.31;94.01
2036;BME280;23642;42.658;23.350;2022-11-30T09:48:31;49960.13;;;-146.31;93.52
2036;BME280;23642;42.658;23.350;2022-11-30T09:51:31;49986.91;;;-146.31;93.06
2036;BME280;23642;42.658;23.350;2022-11-30T10:00:30;50073.53;;;-146.31;92.38
2036;BME280;23642;42.658;23.350;2022-11-30T10:04:07;50069.41;;;-146.31;92.67
2036;BME280;23642;42.658;23.350;2022-11-30T10:07:08;50061.16;;;-146.31;92.71
2036;BME280;23642;42.658;23.350;2022-11-30T10:10:17;50038.47;;;-146.31;93.47
2036;BME280;23642;42.658;23.350;2022-11-30T10:37:08;49993.09;;;-146.31;95.39
2036;BME280;23642;42.658;23.350;2022-11-30T10:42:59;49984.84;;;-146.31;95.36
2036;BME280;23642;42.658;23.350;2022-11-30T10:49:10;49972.47;;;-146.31;95.06
2036;BME280;23642;42.658;23.350;2022-11-30T10:52:43;49982.78;;;-146.31;95.62
2036;BME280;23642;42.658;23.350;2022-11-30T10:55:38;49945.69;;;-146.31;95.43
2036;BME280;23642;42.658;23.350;2022-11-30T10:58:52;49966.28;;;-146.31;96.14
2036;BME280;23642;42.658;23.350;2022-11-30T11:01:31;49941.56;;;-146.31;96.47
2036;BME280;23642;42.658;23.350;2022-11-30T11:04:17;49949.81;;;-146.31;96.15
2036;BME280;23642;42.658;23.350;2022-11-30T11:06:52;49898.25;;;-146.31;96.85
2036;BME280;23642;42.658;23.350;2022-11-30T11:09:58;49941.56;;;-146.31;95.98
2036;BME280;23642;42.658;23.350;2022-11-30T11:12:33;49958.06;;;-146.31;96.13
2036;BME280;23642;42.658;23.350;2022-11-30T11:15:07;49925.06;;;-146.31;95.67
2036;BME280;23642;42.658;23.350;2022-11-30T11:17:39;49939.50;;;-146.31;96.34
2036;BME280;23642;42.658;23.350;2022-11-30T11:20:30;49923.00;;;-146.31;96.22
2036;BME280;23642;42.658;23.350;2022-11-30T11:23:26;49914.75;;;-146.31;96.44
2036;BME280;23642;42.658;23.350;2022-11-30T11:26:37;49935.38;;;-146.31;95.75
2036;BME280;23642;42.658;23.350;2022-11-30T11:29:29;49958.06;;;-146.31;95.33
2036;BME280;23642;42.658;23.350;2022-11-30T11:32:32;49935.38;;;-146.31;95.69
2036;BME280;23642;42.658;23.350;2022-11-30T11:35:37;49933.31;;;-146.31;95.85
2036;BME280;23642;42.658;23.350;2022-11-30T11:38:19;49925.06;;;-146.31;95.26
2036;BME280;23642;42.658;23.350;2022-11-30T11:41:16;49929.19;;;-146.31;95.47
2036;BME280;23642;42.658;23.350;2022-11-30T11:44:04;49972.47;;;-146.31;95.71
2036;BME280;23642;42.658;23.350;2022-11-30T11:46:53;49937.44;;;-146.31;95.60
2036;BME280;23642;42.658;23.350;2022-11-30T11:49:26;49939.50;;;-146.31;96.24
2036;BME280;23642;42.658;23.350;2022-11-30T11:52:02;49923.00;;;-146.31;95.90
2036;BME280;23642;42.658;23.350;2022-11-30T11:54:37;49949.81;;;-146.31;95.71
2036;BME280;23642;42.658;23.350;2022-11-30T11:57:15;49910.63;;;-146.31;95.84
2036;BME280;23642;42.658;23.350;2022-11-30T11:59:53;49933.31;;;-146.31;95.95
2036;BME280;23642;42.658;23.350;2022-11-30T12:02:31;49929.19;;;-146.31;95.69
2036;BME280;23642;42.658;23.350;2022-11-30T12:05:13;49962.19;;;-146.31;95.72
2036;BME280;23642;42.658;23.350;2022-11-30T12:07:55;49949.81;;;-146.31;95.85
2036;BME280;23642;42.658;23.350;2022-11-30T12:13:45;49978.66;;;-146.31;95.57
2036;BME280;23642;42.658;23.350;2022-11-30T12:20:19;49966.28;;;-146.31;95.73
2036;BME280;23642;42.658;23.350;2022-11-30T12:23:20;49949.81;;;-146.31;95.31
2036;BME280;23642;42.658;23.350;2022-11-30T12:29:39;50001.34;;;-146.31;95.41
2036;BME280;23642;42.658;23.350;2022-11-30T12:36:26;50036.41;;;-146.31;94.34
2036;BME280;23642;42.658;23.350;2022-11-30T12:39:39;50034.34;;;-146.31;94.04
2036;BME280;23642;42.658;23.350;2022-11-30T12:42:26;50050.84;;;-146.31;94.46
2036;BME280;23642;42.658;23.350;2022-11-30T12:45:25;50028.16;;;-146.31;94.26
2036;BME280;23642;42.658;23.350;2022-11-30T12:48:07;50073.53;;;-146.31;94.08
2036;BME280;23642;42.658;23.350;2022-11-30T12:51:23;50063.22;;;-146.31;94.06
2036;BME280;23642;42.658;23.350;2022-11-30T12:54:31;50057.03;;;-146.31;93.80
2036;BME280;23642;42.658;23.350;2022-11-30T12:57:21;50061.16;;;-146.31;94.15
2036;BME280;23642;42.658;23.350;2022-11-30T13:00:04;50036.41;;;-146.31;94.18
2036;BME280;23642;42.658;23.350;2022-11-30T13:03:05;50057.03;;;-146.31;93.76
2036;BME280;23642;42.658;23.350;2022-11-30T13:05:39;50069.41;;;-146.31;93.76
2036;BME280;23642;42.658;23.350;2022-11-30T13:08:21;50052.91;;;-146.31;94.02
2036;BME280;23642;42.658;23.350;2022-11-30T13:11:00;50061.16;;;-146.31;93.85
2036;BME280;23642;42.658;23.350;2022-11-30T13:13:34;50065.28;;;-146.31;93.98
2036;BME280;23642;42.658;23.350;2022-11-30T13:16:22;50096.22;;;-146.31;93.74
2036;BME280;23642;42.658;23.350;2022-11-30T13:19:09;50098.28;;;-146.31;93.76
2036;BME280;23642;42.658;23.350;2022-11-30T13:22:02;50123.03;;;-146.31;93.35
2036;BME280;23642;42.658;23.350;2022-11-30T13:24:58;50090.03;;;-146.31;92.94
2036;BME280;23642;42.658;23.350;2022-11-30T13:27:31;50100.34;;;-146.31;92.49
2036;BME280;23642;42.658;23.350;2022-11-30T13:30:16;50151.91;;;-146.31;91.99
2036;BME280;23642;42.658;23.350;2022-11-30T13:36:43;50166.31;;;-146.31;91.74
2036;BME280;23642;42.658;23.350;2022-11-30T13:39:23;50164.25;;;-146.31;91.86
2036;BME280;23642;42.658;23.350;2022-11-30T13:45:30;50153.97;;;-146.31;92.08
2036;BME280;23642;42.658;23.350;2022-11-30T13:48:30;50133.34;;;-146.31;92.08
2036;BME280;23642;42.658;23.350;2022-11-30T13:51:30;50164.25;;;-146.31;92.12
2036;BME280;23642;42.658;23.350;2022-11-30T13:54:46;50180.75;;;-146.31;91.87
2036;BME280;23642;42.658;23.350;2022-11-30T14:00:58;50197.25;;;-146.31;91.07
2036;BME280;23642;42.658;23.350;2022-11-30T14:03:32;50193.13;;;-146.31;91.37
2036;BME280;23642;42.658;23.350;2022-11-30T14:06:04;50246.75;;;-146.31;91.46
2036;BME280;23642;42.658;23.350;2022-11-30T14:08:51;50211.69;;;-146.31;91.87
2036;BME280;23642;42.658;23.350;2022-11-30T14:11:41;50211.69;;;-146.31;91.86
2036;BME280;23642;42.658;23.350;2022-11-30T14:14:42;50219.94;;;-146.31;92.10
2036;BME280;23642;42.658;23.350;2022-11-30T14:17:19;50207.56;;;-146.31;92.14
2036;BME280;23642;42.658;23.350;2022-11-30T14:19:52;50205.50;;;-146.31;92.29
2036;BME280;23642;42.658;23.350;2022-11-30T14:22:38;50197.25;;;-146.31;92.51
2036;BME280;23642;42.658;23.350;2022-11-30T14:25:11;50213.75;;;-146.31;92.74
2036;BME280;23642;42.658;23.350;2022-11-30T14:27:43;50234.38;;;-146.31;92.39
2036;BME280;23642;42.658;23.350;2022-11-30T14:30:20;50195.19;;;-146.31;92.64
2036;BME280;23642;42.658;23.350;2022-11-30T14:32:57;50184.88;;;-146.31;92.61
2036;BME280;23642;42.658;23.350;2022-11-30T14:35:36;50197.25;;;-146.31;92.97
2036;BME280;23642;42.658;23.350;2022-11-30T14:38:20;50217.88;;;-146.31;93.69
2036;BME280;23642;42.658;23.350;2022-11-30T14:40:50;50189.00;;;-146.31;93.36
2036;BME280;23642;42.658;23.350;2022-11-30T14:43:17;50172.50;;;-146.31;93.64
2036;BME280;23642;42.658;23.350;2022-11-30T14:46:02;50199.31;;;-146.31;93.49
2036;BME280;23642;42.658;23.350;2022-11-30T14:48:33;50232.31;;;-146.31;94.09
2036;BME280;23642;42.658;23.350;2022-11-30T14:51:03;50174.56;;;-146.31;93.79
2036;BME280;23642;42.658;23.350;2022-11-30T14:53:37;50203.44;;;-146.31;93.94
2036;BME280;23642;42.658;23.350;2022-11-30T14:56:15;50209.63;;;-146.31;93.75
2036;BME280;23642;42.658;23.350;2022-11-30T14:58:51;50197.25;;;-146.31;93.97
2036;BME280;23642;42.658;23.350;2022-11-30T15:01:22;50201.38;;;-146.31;93.64
2036;BME280;23642;42.658;23.350;2022-11-30T15:03:56;50215.81;;;-146.31;93.26
2036;BME280;23642;42.658;23.350;2022-11-30T15:06:32;50205.50;;;-146.31;93.74
2036;BME280;23642;42.658;23.350;2022-11-30T15:09:01;50207.56;;;-146.31;93.60
2036;BME280;23642;42.658;23.350;2022-11-30T15:11:29;50195.19;;;-146.31;93.87
2036;BME280;23642;42.658;23.350;2022-11-30T15:14:06;50191.06;;;-146.31;94.31
2036;BME280;23642;42.658;23.350;2022-11-30T15:16:43;50203.44;;;-146.31;94.49
2036;BME280;23642;42.658;23.350;2022-11-30T15:19:45;50180.75;;;-146.31;94.04
2036;BME280;23642;42.658;23.350;2022-11-30T15:22:20;50197.25;;;-146.31;93.99
2036;BME280;23642;42.658;23.350;2022-11-30T15:24:54;50176.63;;;-146.31;94.37
2036;BME280;23642;42.658;23.350;2022-11-30T15:27:31;50197.25;;;-146.31;93.94
2036;BME280;23642;42.658;23.350;2022-11-30T15:30:02;50207.56;;;-146.31;94.39
2036;BME280;23642;42.658;23.350;2022-11-30T15:32:36;50178.69;;;-146.31;94.29
2036;BME280;23642;42.658;23.350;2022-11-30T15:35:26;50189.00;;;-146.31;94.55
2036;BME280;23642;42.658;23.350;2022-11-30T15:38:07;50178.69;;;-146.31;94.80
2036;BME280;23642;42.658;23.350;2022-11-30T15:40:35;50174.56;;;-146.31;94.85
2036;BME280;23642;42.658;23.350;2022-11-30T15:43:04;50182.81;;;-146.31;94.84
2036;BME280;23642;42.658;23.350;2022-11-30T15:45:32;50182.81;;;-146.31;95.16
2036;BME280;23642;42.658;23.350;2022-11-30T15:48:24;50164.25;;;-146.31;94.89
2036;BME280;23642;42.658;23.350;2022-11-30T15:51:27;50153.97;;;-146.31;95.65
2036;BME280;23642;42.658;23.350;2022-11-30T15:54:18;50160.13;;;-146.31;95.28
2036;BME280;23642;42.658;23.350;2022-11-30T15:57:15;50193.13;;;-146.31;95.09
2036;BME280;23642;42.658;23.350;2022-11-30T16:00:06;50166.31;;;-146.31;94.77
2036;BME280;23642;42.658;23.350;2022-11-30T16:05:56;50133.34;;;-146.31;95.24
2036;BME280;23642;42.658;23.350;2022-11-30T16:08:30;50189.00;;;-146.31;94.66
2036;BME280;23642;42.658;23.350;2022-11-30T16:11:12;50222.00;;;-146.31;95.07
2036;BME280;23642;42.658;23.350;2022-11-30T16:13:40;50201.38;;;-146.31;95.36
2036;BME280;23642;42.658;23.350;2022-11-30T16:16:13;50147.78;;;-146.31;95.81
2036;BME280;23642;42.658;23.350;2022-11-30T16:18:44;50180.75;;;-146.31;95.14
2036;BME280;23642;42.658;23.350;2022-11-30T16:21:16;50193.13;;;-146.31;95.24
2036;BME280;23642;42.658;23.350;2022-11-30T16:23:45;50193.13;;;-146.31;95.74
2036;BME280;23642;42.658;23.350;2022-11-30T16:26:59;50180.75;;;-146.31;95.49
2036;BME280;23642;42.658;23.350;2022-11-30T16:29:38;50195.19;;;-146.31;95.53
2036;BME280;23642;42.658;23.350;2022-11-30T16:32:09;50201.38;;;-146.31;96.29
2036;BME280;23642;42.658;23.350;2022-11-30T16:34:50;50147.78;;;-146.31;96.58
2036;BME280;23642;42.658;23.350;2022-11-30T16:37:20;50147.78;;;-146.31;96.40
2036;BME280;23642;42.658;23.350;2022-11-30T16:39:51;50156.03;;;-146.31;96.19
2036;BME280;23642;42.658;23.350;2022-11-30T16:42:18;50156.03;;;-146.31;96.28
2036;BME280;23642;42.658;23.350;2022-11-30T16:44:45;50153.97;;;-146.31;96.19
2036;BME280;23642;42.658;23.350;2022-11-30T16:47:25;50153.97;;;-146.31;96.32
2036;BME280;23642;42.658;23.350;2022-11-30T16:50:15;50158.09;;;-146.31;96.34
2036;BME280;23642;42.658;23.350;2022-11-30T16:53:00;50137.47;;;-146.31;96.51
2036;BME280;23642;42.658;23.350;2022-11-30T16:55:38;50151.91;;;-146.31;96.14